KMSN/MSN METAR and TAF weather

Enter ICAO airport designator
Station Type Date Time Source
KMSN METAR 2021/09/16 10:53 UTC NOAA

KMSN 161053Z 00000KT 8SM CLR 11/10 A3008 RMK AO2 SLP185 T01060100


Station Type Date Time Source
KMSN Decoded METAR 2021/09/16 10:53 UTC NOAA

MADISON DANE COUNTY RGNL, WI, United States (KMSN) 43-08N 89-21W 261M
Sep 16, 2021 - 06:53 AM EDT / 2021.09.16 1053 UTC
Wind: Calm:0
Visibility: 8 mile(s):0
Sky conditions: clear
Temperature: 51.1 F (10.6 C)
Dew Point: 50.0 F (10.0 C)
Relative Humidity: 96%
Pressure (altimeter): 30.08 in. Hg (1018 hPa)
ob: KMSN 161053Z 00000KT 8SM CLR 11/10 A3008 RMK AO2 SLP185 T01060100
cycle: 11

Station Type Date Time Source
KMSN TAF 2021/09/16 12:28 UTC NOAA

TAF KMSN 161125Z 1612/1712 16003KT P6SM FEW250
FM161400 17007KT P6SM SKC
FM161800 18011G19KT P6SM SKC
FM162300 17008KT P6SM SKC
FM170200 18006KT P6SM SKC

Example: see airport list